sensor_id;sensor_type;location;lat;lon;timestamp;temperature;humidity
69823;SHT31;57119;52.516;13.508;2022-11-09T00:01:29;11.58;83.69
69823;SHT31;57119;52.516;13.508;2022-11-09T00:03:58;11.56;83.83
69823;SHT31;57119;52.516;13.508;2022-11-09T00:06:25;11.49;83.91
69823;SHT31;57119;52.516;13.508;2022-11-09T00:08:51;11.47;84.00
69823;SHT31;57119;52.516;13.508;2022-11-09T00:11:17;11.46;84.00
69823;SHT31;57119;52.516;13.508;2022-11-09T00:13:43;11.44;84.01
69823;SHT31;57119;52.516;13.508;2022-11-09T00:16:11;11.39;84.30
69823;SHT31;57119;52.516;13.508;2022-11-09T00:18:37;11.44;84.14
69823;SHT31;57119;52.516;13.508;2022-11-09T00:21:11;11.46;84.09
69823;SHT31;57119;52.516;13.508;2022-11-09T00:23:36;11.50;83.91
69823;SHT31;57119;52.516;13.508;2022-11-09T00:26:03;11.39;84.27
69823;SHT31;57119;52.516;13.508;2022-11-09T00:28:32;11.44;84.16
69823;SHT31;57119;52.516;13.508;2022-11-09T00:31:03;11.39;84.13
69823;SHT31;57119;52.516;13.508;2022-11-09T00:33:29;11.39;84.19
69823;SHT31;57119;52.516;13.508;2022-11-09T00:35:54;11.43;84.11
69823;SHT31;57119;52.516;13.508;2022-11-09T00:38:20;11.40;84.18
69823;SHT31;57119;52.516;13.508;2022-11-09T00:40:45;11.38;84.32
69823;SHT31;57119;52.516;13.508;2022-11-09T00:43:11;11.29;84.57
69823;SHT31;57119;52.516;13.508;2022-11-09T00:45:37;11.32;84.59
69823;SHT31;57119;52.516;13.508;2022-11-09T00:48:02;11.39;84.35
69823;SHT31;57119;52.516;13.508;2022-11-09T00:50:27;11.44;83.96
69823;SHT31;57119;52.516;13.508;2022-11-09T00:52:53;11.46;83.87
69823;SHT31;57119;52.516;13.508;2022-11-09T00:55:18;11.50;83.86
69823;SHT31;57119;52.516;13.508;2022-11-09T00:57:51;11.62;83.38
69823;SHT31;57119;52.516;13.508;2022-11-09T01:00:17;11.55;83.33
69823;SHT31;57119;52.516;13.508;2022-11-09T01:02:43;11.44;83.54
69823;SHT31;57119;52.516;13.508;2022-11-09T01:05:08;11.49;83.49
69823;SHT31;57119;52.516;13.508;2022-11-09T01:07:33;11.46;83.42
69823;SHT31;57119;52.516;13.508;2022-11-09T01:09:58;11.49;83.39
69823;SHT31;57119;52.516;13.508;2022-11-09T01:12:24;11.56;83.09
69823;SHT31;57119;52.516;13.508;2022-11-09T01:14:49;11.53;83.20
69823;SHT31;57119;52.516;13.508;2022-11-09T01:17:15;11.58;82.98
69823;SHT31;57119;52.516;13.508;2022-11-09T01:19:40;11.50;83.38
69823;SHT31;57119;52.516;13.508;2022-11-09T01:22:05;11.55;83.20
69823;SHT31;57119;52.516;13.508;2022-11-09T01:24:30;11.55;83.13
69823;SHT31;57119;52.516;13.508;2022-11-09T01:26:56;11.49;83.24
69823;SHT31;57119;52.516;13.508;2022-11-09T01:29:21;11.50;83.04
69823;SHT31;57119;52.516;13.508;2022-11-09T01:31:46;11.43;83.32
69823;SHT31;57119;52.516;13.508;2022-11-09T01:34:13;11.35;83.47
69823;SHT31;57119;52.516;13.508;2022-11-09T01:36:38;11.31;83.65
69823;SHT31;57119;52.516;13.508;2022-11-09T01:39:03;11.18;83.85
69823;SHT31;57119;52.516;13.508;2022-11-09T01:41:29;11.33;83.50
69823;SHT31;57119;52.516;13.508;2022-11-09T01:44:09;11.43;83.03
69823;SHT31;57119;52.516;13.508;2022-11-09T01:51:59;11.36;83.14
69823;SHT31;57119;52.516;13.508;2022-11-09T01:54:38;11.31;83.31
69823;SHT31;57119;52.516;13.508;2022-11-09T01:57:10;11.36;82.95
69823;SHT31;57119;52.516;13.508;2022-11-09T01:59:38;11.31;83.16
69823;SHT31;57119;52.516;13.508;2022-11-09T02:02:05;11.32;83.15
69823;SHT31;57119;52.516;13.508;2022-11-09T02:04:38;11.31;82.95
69823;SHT31;57119;52.516;13.508;2022-11-09T02:07:04;11.38;82.78
69823;SHT31;57119;52.516;13.508;2022-11-09T02:09:37;11.22;83.30
69823;SHT31;57119;52.516;13.508;2022-11-09T02:12:05;11.18;83.44
69823;SHT31;57119;52.516;13.508;2022-11-09T02:14:32;11.12;83.51
69823;SHT31;57119;52.516;13.508;2022-11-09T02:16:58;11.11;83.51
69823;SHT31;57119;52.516;13.508;2022-11-09T02:19:23;11.08;83.78
69823;SHT31;57119;52.516;13.508;2022-11-09T02:21:49;11.02;83.92
69823;SHT31;57119;52.516;13.508;2022-11-09T02:24:15;11.08;83.60
69823;SHT31;57119;52.516;13.508;2022-11-09T02:26:48;10.90;84.27
69823;SHT31;57119;52.516;13.508;2022-11-09T02:29:17;10.91;84.16
69823;SHT31;57119;52.516;13.508;2022-11-09T02:31:48;10.83;84.67
69823;SHT31;57119;52.516;13.508;2022-11-09T02:34:17;10.68;84.90
69823;SHT31;57119;52.516;13.508;2022-11-09T02:36:43;10.71;85.08
69823;SHT31;57119;52.516;13.508;2022-11-09T02:39:09;10.64;85.34
69823;SHT31;57119;52.516;13.508;2022-11-09T02:42:02;10.60;85.34
69823;SHT31;57119;52.516;13.508;2022-11-09T02:44:29;10.59;85.47
69823;SHT31;57119;52.516;13.508;2022-11-09T02:46:56;10.54;85.66
69823;SHT31;57119;52.516;13.508;2022-11-09T02:49:22;10.47;85.80
69823;SHT31;57119;52.516;13.508;2022-11-09T02:51:47;10.37;86.14
69823;SHT31;57119;52.516;13.508;2022-11-09T02:54:12;10.37;86.37
69823;SHT31;57119;52.516;13.508;2022-11-09T02:56:37;10.20;86.85
69823;SHT31;57119;52.516;13.508;2022-11-09T02:59:03;10.12;87.00
69823;SHT31;57119;52.516;13.508;2022-11-09T03:01:29;10.06;87.48
69823;SHT31;57119;52.516;13.508;2022-11-09T03:03:54;10.03;87.33
69823;SHT31;57119;52.516;13.508;2022-11-09T03:06:19;10.13;87.10
69823;SHT31;57119;52.516;13.508;2022-11-09T03:08:45;10.13;86.98
69823;SHT31;57119;52.516;13.508;2022-11-09T03:11:10;10.08;87.21
69823;SHT31;57119;52.516;13.508;2022-11-09T03:13:35;9.92;88.00
69823;SHT31;57119;52.516;13.508;2022-11-09T03:16:05;10.03;87.50
69823;SHT31;57119;52.516;13.508;2022-11-09T03:18:30;10.15;86.97
69823;SHT31;57119;52.516;13.508;2022-11-09T03:21:02;10.28;86.75
69823;SHT31;57119;52.516;13.508;2022-11-09T03:23:28;10.32;86.66
69823;SHT31;57119;52.516;13.508;2022-11-09T03:25:54;10.33;86.46
69823;SHT31;57119;52.516;13.508;2022-11-09T03:28:19;10.42;86.43
69823;SHT31;57119;52.516;13.508;2022-11-09T03:30:44;10.56;85.82
69823;SHT31;57119;52.516;13.508;2022-11-09T03:33:10;10.67;85.38
69823;SHT31;57119;52.516;13.508;2022-11-09T03:35:36;10.73;85.29
69823;SHT31;57119;52.516;13.508;2022-11-09T03:38:02;10.78;85.06
69823;SHT31;57119;52.516;13.508;2022-11-09T03:40:28;10.81;84.94
69823;SHT31;57119;52.516;13.508;2022-11-09T03:42:54;10.88;84.78
69823;SHT31;57119;52.516;13.508;2022-11-09T03:45:19;10.97;84.40
69823;SHT31;57119;52.516;13.508;2022-11-09T03:47:45;11.00;84.69
69823;SHT31;57119;52.516;13.508;2022-11-09T03:50:21;11.00;84.57
69823;SHT31;57119;52.516;13.508;2022-11-09T03:52:49;10.95;84.74
69823;SHT31;57119;52.516;13.508;2022-11-09T03:55:15;11.02;84.34
69823;SHT31;57119;52.516;13.508;2022-11-09T03:57:40;11.04;84.59
69823;SHT31;57119;52.516;13.508;2022-11-09T04:00:06;11.15;83.92
69823;SHT31;57119;52.516;13.508;2022-11-09T04:02:32;11.19;83.87
69823;SHT31;57119;52.516;13.508;2022-11-09T04:04:57;11.23;83.73
69823;SHT31;57119;52.516;13.508;2022-11-09T04:07:23;11.29;83.61
69823;SHT31;57119;52.516;13.508;2022-11-09T04:09:48;11.33;83.33
69823;SHT31;57119;52.516;13.508;2022-11-09T04:12:13;11.35;83.44
69823;SHT31;57119;52.516;13.508;2022-11-09T04:14:38;11.46;83.35
69823;SHT31;57119;52.516;13.508;2022-11-09T04:17:04;11.53;83.17
69823;SHT31;57119;52.516;13.508;2022-11-09T04:19:29;11.58;83.30
69823;SHT31;57119;52.516;13.508;2022-11-09T04:21:54;11.47;83.63
69823;SHT31;57119;52.516;13.508;2022-11-09T04:24:19;11.52;83.64
69823;SHT31;57119;52.516;13.508;2022-11-09T04:26:46;11.55;83.58
69823;SHT31;57119;52.516;13.508;2022-11-09T04:29:12;11.65;83.32
69823;SHT31;57119;52.516;13.508;2022-11-09T04:31:37;11.59;83.79
69823;SHT31;57119;52.516;13.508;2022-11-09T04:34:02;11.71;83.12
69823;SHT31;57119;52.516;13.508;2022-11-09T04:36:27;11.63;83.46
69823;SHT31;57119;52.516;13.508;2022-11-09T04:38:53;11.73;82.92
69823;SHT31;57119;52.516;13.508;2022-11-09T04:41:18;11.76;83.23
69823;SHT31;57119;52.516;13.508;2022-11-09T04:43:43;11.73;83.39
69823;SHT31;57119;52.516;13.508;2022-11-09T04:46:09;11.80;83.30
69823;SHT31;57119;52.516;13.508;2022-11-09T04:48:34;11.65;84.52
69823;SHT31;57119;52.516;13.508;2022-11-09T04:51:01;11.63;84.72
69823;SHT31;57119;52.516;13.508;2022-11-09T04:53:27;11.60;85.10
69823;SHT31;57119;52.516;13.508;2022-11-09T04:55:52;11.56;86.17
69823;SHT31;57119;52.516;13.508;2022-11-09T04:58:17;11.55;85.96
69823;SHT31;57119;52.516;13.508;2022-11-09T05:00:43;11.42;87.13
69823;SHT31;57119;52.516;13.508;2022-11-09T05:03:08;11.33;88.80
69823;SHT31;57119;52.516;13.508;2022-11-09T05:05:35;11.28;88.11
69823;SHT31;57119;52.516;13.508;2022-11-09T05:08:00;11.14;89.33
69823;SHT31;57119;52.516;13.508;2022-11-09T05:10:26;11.19;88.99
69823;SHT31;57119;52.516;13.508;2022-11-09T05:13:02;11.28;88.45
69823;SHT31;57119;52.516;13.508;2022-11-09T05:15:28;11.22;89.06
69823;SHT31;57119;52.516;13.508;2022-11-09T05:17:53;11.11;92.44
69823;SHT31;57119;52.516;13.508;2022-11-09T05:20:19;11.07;91.90
69823;SHT31;57119;52.516;13.508;2022-11-09T05:22:45;10.97;92.67
69823;SHT31;57119;52.516;13.508;2022-11-09T05:25:29;10.91;94.56
69823;SHT31;57119;52.516;13.508;2022-11-09T05:27:54;10.94;92.43
69823;SHT31;57119;52.516;13.508;2022-11-09T05:30:20;11.04;91.18
69823;SHT31;57119;52.516;13.508;2022-11-09T05:32:45;11.05;90.67
69823;SHT31;57119;52.516;13.508;2022-11-09T05:35:10;11.07;91.23
69823;SHT31;57119;52.516;13.508;2022-11-09T05:37:37;11.16;90.22
69823;SHT31;57119;52.516;13.508;2022-11-09T05:40:03;11.11;91.23
69823;SHT31;57119;52.516;13.508;2022-11-09T05:42:28;11.14;91.20
69823;SHT31;57119;52.516;13.508;2022-11-09T05:44:53;11.12;91.48
69823;SHT31;57119;52.516;13.508;2022-11-09T05:47:20;11.21;91.49
69823;SHT31;57119;52.516;13.508;2022-11-09T05:49:45;11.25;91.13
69823;SHT31;57119;52.516;13.508;2022-11-09T05:52:10;11.33;90.59
69823;SHT31;57119;52.516;13.508;2022-11-09T05:54:36;11.39;90.82
69823;SHT31;57119;52.516;13.508;2022-11-09T05:57:02;11.36;91.15
69823;SHT31;57119;52.516;13.508;2022-11-09T05:59:27;11.25;91.76
69823;SHT31;57119;52.516;13.508;2022-11-09T06:01:52;11.35;91.09
69823;SHT31;57119;52.516;13.508;2022-11-09T06:04:18;11.40;91.20
69823;SHT31;57119;52.516;13.508;2022-11-09T06:06:43;11.33;91.45
69823;SHT31;57119;52.516;13.508;2022-11-09T06:09:08;11.33;91.60
69823;SHT31;57119;52.516;13.508;2022-11-09T06:11:34;11.33;91.79
69823;SHT31;57119;52.516;13.508;2022-11-09T06:13:59;11.29;92.01
69823;SHT31;57119;52.516;13.508;2022-11-09T06:16:24;11.26;92.39
69823;SHT31;57119;52.516;13.508;2022-11-09T06:18:50;11.31;92.42
69823;SHT31;57119;52.516;13.508;2022-11-09T06:21:15;11.28;92.47
69823;SHT31;57119;52.516;13.508;2022-11-09T06:23:40;11.36;91.63
69823;SHT31;57119;52.516;13.508;2022-11-09T06:26:10;11.47;91.16
69823;SHT31;57119;52.516;13.508;2022-11-09T06:28:36;11.55;91.10
69823;SHT31;57119;52.516;13.508;2022-11-09T06:31:03;11.55;91.10
69823;SHT31;57119;52.516;13.508;2022-11-09T06:33:30;11.56;91.19
69823;SHT31;57119;52.516;13.508;2022-11-09T06:35:57;11.58;90.78
69823;SHT31;57119;52.516;13.508;2022-11-09T06:38:23;11.59;90.79
69823;SHT31;57119;52.516;13.508;2022-11-09T06:40:54;11.65;90.78
69823;SHT31;57119;52.516;13.508;2022-11-09T06:43:19;11.63;90.47
69823;SHT31;57119;52.516;13.508;2022-11-09T06:45:45;11.65;90.49
69823;SHT31;57119;52.516;13.508;2022-11-09T06:48:10;11.70;90.14
69823;SHT31;57119;52.516;13.508;2022-11-09T06:50:36;11.73;90.08
69823;SHT31;57119;52.516;13.508;2022-11-09T06:53:07;11.73;90.35
69823;SHT31;57119;52.516;13.508;2022-11-09T06:55:34;11.69;90.49
69823;SHT31;57119;52.516;13.508;2022-11-09T06:58:08;11.70;89.98
69823;SHT31;57119;52.516;13.508;2022-11-09T07:00:34;11.83;89.86
69823;SHT31;57119;52.516;13.508;2022-11-09T07:03:00;11.87;89.43
69823;SHT31;57119;52.516;13.508;2022-11-09T07:05:25;11.86;89.58
69823;SHT31;57119;52.516;13.508;2022-11-09T07:07:51;11.93;89.51
69823;SHT31;57119;52.516;13.508;2022-11-09T07:10:16;11.93;89.50
69823;SHT31;57119;52.516;13.508;2022-11-09T07:12:42;11.86;90.09
69823;SHT31;57119;52.516;13.508;2022-11-09T07:15:07;11.94;89.62
69823;SHT31;57119;52.516;13.508;2022-11-09T07:17:33;11.81;90.52
69823;SHT31;57119;52.516;13.508;2022-11-09T07:20:01;11.74;92.29
69823;SHT31;57119;52.516;13.508;2022-11-09T07:22:27;11.70;91.96
69823;SHT31;57119;52.516;13.508;2022-11-09T07:24:52;11.74;91.10
69823;SHT31;57119;52.516;13.508;2022-11-09T07:27:18;11.66;91.62
69823;SHT31;57119;52.516;13.508;2022-11-09T07:29:43;11.56;94.53
69823;SHT31;57119;52.516;13.508;2022-11-09T07:32:08;11.65;93.81
69823;SHT31;57119;52.516;13.508;2022-11-09T07:34:33;11.43;94.91
69823;SHT31;57119;52.516;13.508;2022-11-09T07:36:59;11.47;94.06
69823;SHT31;57119;52.516;13.508;2022-11-09T07:39:24;11.46;93.68
69823;SHT31;57119;52.516;13.508;2022-11-09T07:41:49;11.44;94.06
69823;SHT31;57119;52.516;13.508;2022-11-09T07:44:15;11.43;94.31
69823;SHT31;57119;52.516;13.508;2022-11-09T07:46:46;11.49;93.70
69823;SHT31;57119;52.516;13.508;2022-11-09T07:49:13;11.40;95.18
69823;SHT31;57119;52.516;13.508;2022-11-09T07:51:39;11.33;95.76
69823;SHT31;57119;52.516;13.508;2022-11-09T07:54:05;11.39;96.16
69823;SHT31;57119;52.516;13.508;2022-11-09T07:56:30;11.47;95.40
69823;SHT31;57119;52.516;13.508;2022-11-09T07:58:55;11.58;94.92
69823;SHT31;57119;52.516;13.508;2022-11-09T08:01:21;11.65;94.55
69823;SHT31;57119;52.516;13.508;2022-11-09T08:03:46;11.62;94.92
69823;SHT31;57119;52.516;13.508;2022-11-09T08:06:11;11.69;94.52
69823;SHT31;57119;52.516;13.508;2022-11-09T08:08:37;11.74;94.35
69823;SHT31;57119;52.516;13.508;2022-11-09T08:11:02;11.70;94.58
69823;SHT31;57119;52.516;13.508;2022-11-09T08:13:27;11.66;94.66
69823;SHT31;57119;52.516;13.508;2022-11-09T08:15:53;11.73;94.72
69823;SHT31;57119;52.516;13.508;2022-11-09T08:18:20;11.73;94.34
69823;SHT31;57119;52.516;13.508;2022-11-09T08:20:46;11.79;93.55
69823;SHT31;57119;52.516;13.508;2022-11-09T08:23:13;11.77;94.47
69823;SHT31;57119;52.516;13.508;2022-11-09T08:25:39;11.79;94.31
69823;SHT31;57119;52.516;13.508;2022-11-09T08:28:04;11.81;94.49
69823;SHT31;57119;52.516;13.508;2022-11-09T08:30:30;11.77;94.36
69823;SHT31;57119;52.516;13.508;2022-11-09T08:32:57;11.77;94.50
69823;SHT31;57119;52.516;13.508;2022-11-09T08:35:23;11.83;94.16
69823;SHT31;57119;52.516;13.508;2022-11-09T08:37:50;11.74;94.75
69823;SHT31;57119;52.516;13.508;2022-11-09T08:40:18;11.67;95.03
69823;SHT31;57119;52.516;13.508;2022-11-09T08:42:44;11.71;95.17
69823;SHT31;57119;52.516;13.508;2022-11-09T08:45:10;11.79;94.76
69823;SHT31;57119;52.516;13.508;2022-11-09T08:47:36;11.80;94.38
69823;SHT31;57119;52.516;13.508;2022-11-09T08:50:03;11.80;94.09
69823;SHT31;57119;52.516;13.508;2022-11-09T08:52:29;11.83;94.25
69823;SHT31;57119;52.516;13.508;2022-11-09T08:54:54;11.90;94.04
69823;SHT31;57119;52.516;13.508;2022-11-09T08:57:19;11.90;94.34
69823;SHT31;57119;52.516;13.508;2022-11-09T08:59:45;11.83;93.97
69823;SHT31;57119;52.516;13.508;2022-11-09T09:02:11;11.89;94.19
69823;SHT31;57119;52.516;13.508;2022-11-09T09:04:37;11.87;94.34
69823;SHT31;57119;52.516;13.508;2022-11-09T09:07:02;11.97;94.17
69823;SHT31;57119;52.516;13.508;2022-11-09T09:09:28;11.98;94.26
69823;SHT31;57119;52.516;13.508;2022-11-09T09:11:53;12.05;94.37
69823;SHT31;57119;52.516;13.508;2022-11-09T09:14:18;12.17;93.73
69823;SHT31;57119;52.516;13.508;2022-11-09T09:16:44;12.20;93.70
69823;SHT31;57119;52.516;13.508;2022-11-09T09:19:09;12.22;93.52
69823;SHT31;57119;52.516;13.508;2022-11-09T09:21:35;12.29;93.87
69823;SHT31;57119;52.516;13.508;2022-11-09T09:24:00;12.31;93.98
69823;SHT31;57119;52.516;13.508;2022-11-09T09:26:25;12.31;93.56
69823;SHT31;57119;52.516;13.508;2022-11-09T09:28:50;12.45;93.08
69823;SHT31;57119;52.516;13.508;2022-11-09T09:31:16;12.60;92.91
69823;SHT31;57119;52.516;13.508;2022-11-09T09:33:41;12.60;92.55
69823;SHT31;57119;52.516;13.508;2022-11-09T09:36:08;12.87;91.90
69823;SHT31;57119;52.516;13.508;2022-11-09T09:38:34;13.20;90.78
69823;SHT31;57119;52.516;13.508;2022-11-09T09:41:01;13.35;89.97
69823;SHT31;57119;52.516;13.508;2022-11-09T09:46:03;13.68;88.66
69823;SHT31;57119;52.516;13.508;2022-11-09T09:48:47;13.50;88.51
69823;SHT31;57119;52.516;13.508;2022-11-09T09:51:23;13.78;88.82
69823;SHT31;57119;52.516;13.508;2022-11-09T09:53:55;15.33;84.46
69823;SHT31;57119;52.516;13.508;2022-11-09T09:56:26;15.58;82.04
69823;SHT31;57119;52.516;13.508;2022-11-09T09:58:57;15.08;83.66
69823;SHT31;57119;52.516;13.508;2022-11-09T10:01:27;14.42;85.31
69823;SHT31;57119;52.516;13.508;2022-11-09T10:03:55;14.21;86.35
69823;SHT31;57119;52.516;13.508;2022-11-09T10:06:36;14.91;85.10
69823;SHT31;57119;52.516;13.508;2022-11-09T10:09:14;14.58;84.44
69823;SHT31;57119;52.516;13.508;2022-11-09T10:20:05;14.00;86.95
69823;SHT31;57119;52.516;13.508;2022-11-09T10:23:02;13.81;87.95
69823;SHT31;57119;52.516;13.508;2022-11-09T10:25:32;13.63;88.28
69823;SHT31;57119;52.516;13.508;2022-11-09T10:28:05;13.72;88.90
69823;SHT31;57119;52.516;13.508;2022-11-09T10:30:33;13.59;89.50
69823;SHT31;57119;52.516;13.508;2022-11-09T10:33:15;13.66;89.26
69823;SHT31;57119;52.516;13.508;2022-11-09T10:38:24;13.62;89.43
69823;SHT31;57119;52.516;13.508;2022-11-09T10:40:58;13.59;89.47
69823;SHT31;57119;52.516;13.508;2022-11-09T10:43:25;14.03;88.58
69823;SHT31;57119;52.516;13.508;2022-11-09T10:46:02;14.72;86.27
69823;SHT31;57119;52.516;13.508;2022-11-09T10:48:32;16.28;81.74
69823;SHT31;57119;52.516;13.508;2022-11-09T10:50:58;18.37;76.18
69823;SHT31;57119;52.516;13.508;2022-11-09T10:53:26;20.12;69.97
69823;SHT31;57119;52.516;13.508;2022-11-09T10:58:26;21.43;66.11
69823;SHT31;57119;52.516;13.508;2022-11-09T11:00:58;22.72;63.82
69823;SHT31;57119;52.516;13.508;2022-11-09T11:03:24;21.02;65.44
69823;SHT31;57119;52.516;13.508;2022-11-09T11:09:12;21.86;63.91
69823;SHT31;57119;52.516;13.508;2022-11-09T11:11:38;22.07;63.89
69823;SHT31;57119;52.516;13.508;2022-11-09T11:16:51;22.41;63.74
69823;SHT31;57119;52.516;13.508;2022-11-09T11:19:49;22.39;63.05
69823;SHT31;57119;52.516;13.508;2022-11-09T11:22:25;24.33;59.05
69823;SHT31;57119;52.516;13.508;2022-11-09T11:25:01;24.33;59.38
69823;SHT31;57119;52.516;13.508;2022-11-09T11:27:47;22.44;61.25
69823;SHT31;57119;52.516;13.508;2022-11-09T11:30:17;23.92;59.37
69823;SHT31;57119;52.516;13.508;2022-11-09T11:32:43;23.35;60.76
69823;SHT31;57119;52.516;13.508;2022-11-09T11:49:11;23.14;60.62
69823;SHT31;57119;52.516;13.508;2022-11-09T11:54:40;19.69;69.62
69823;SHT31;57119;52.516;13.508;2022-11-09T11:57:38;22.04;64.60
69823;SHT31;57119;52.516;13.508;2022-11-09T12:00:13;22.82;61.23
69823;SHT31;57119;52.516;13.508;2022-11-09T12:21:39;21.74;63.21
69823;SHT31;57119;52.516;13.508;2022-11-09T12:24:41;23.14;62.12
69823;SHT31;57119;52.516;13.508;2022-11-09T12:30:11;19.68;68.42
69823;SHT31;57119;52.516;13.508;2022-11-09T12:33:14;19.12;71.50
69823;SHT31;57119;52.516;13.508;2022-11-09T12:35:49;22.18;64.18
69823;SHT31;57119;52.516;13.508;2022-11-09T12:38:35;23.79;60.41
69823;SHT31;57119;52.516;13.508;2022-11-09T12:41:13;24.58;58.45
69823;SHT31;57119;52.516;13.508;2022-11-09T12:43:57;22.86;61.13
69823;SHT31;57119;52.516;13.508;2022-11-09T12:46:30;21.93;63.47
69823;SHT31;57119;52.516;13.508;2022-11-09T12:49:00;19.93;67.72
69823;SHT31;57119;52.516;13.508;2022-11-09T12:51:26;20.36;67.64
69823;SHT31;57119;52.516;13.508;2022-11-09T12:53:52;21.71;65.51
69823;SHT31;57119;52.516;13.508;2022-11-09T12:56:32;22.62;62.83
69823;SHT31;57119;52.516;13.508;2022-11-09T13:01:56;21.49;65.31
69823;SHT31;57119;52.516;13.508;2022-11-09T13:04:23;21.43;65.52
69823;SHT31;57119;52.516;13.508;2022-11-09T13:09:33;21.04;66.25
69823;SHT31;57119;52.516;13.508;2022-11-09T13:12:19;21.38;65.40
69823;SHT31;57119;52.516;13.508;2022-11-09T13:14:44;20.60;67.66
69823;SHT31;57119;52.516;13.508;2022-11-09T13:19:55;19.12;70.71
69823;SHT31;57119;52.516;13.508;2022-11-09T13:24:57;18.21;73.70
69823;SHT31;57119;52.516;13.508;2022-11-09T13:27:44;17.85;74.16
69823;SHT31;57119;52.516;13.508;2022-11-09T13:38:18;16.55;78.79
69823;SHT31;57119;52.516;13.508;2022-11-09T13:45:42;15.98;80.59
69823;SHT31;57119;52.516;13.508;2022-11-09T13:51:20;15.77;81.29
69823;SHT31;57119;52.516;13.508;2022-11-09T13:54:00;15.71;81.59
69823;SHT31;57119;52.516;13.508;2022-11-09T13:56:31;15.60;81.92
69823;SHT31;57119;52.516;13.508;2022-11-09T14:01:29;15.42;82.57
69823;SHT31;57119;52.516;13.508;2022-11-09T14:03:56;15.33;82.97
69823;SHT31;57119;52.516;13.508;2022-11-09T14:06:22;15.19;83.19
69823;SHT31;57119;52.516;13.508;2022-11-09T14:08:48;15.13;83.45
69823;SHT31;57119;52.516;13.508;2022-11-09T14:16:38;15.09;83.81
69823;SHT31;57119;52.516;13.508;2022-11-09T14:21:43;14.91;84.34
69823;SHT31;57119;52.516;13.508;2022-11-09T14:24:19;14.89;84.69
69823;SHT31;57119;52.516;13.508;2022-11-09T14:29:33;14.82;84.91
69823;SHT31;57119;52.516;13.508;2022-11-09T14:34:44;14.67;85.68
69823;SHT31;57119;52.516;13.508;2022-11-09T14:37:12;14.57;86.13
69823;SHT31;57119;52.516;13.508;2022-11-09T14:39:38;14.60;86.21
69823;SHT31;57119;52.516;13.508;2022-11-09T14:42:05;14.34;87.10
69823;SHT31;57119;52.516;13.508;2022-11-09T14:44:35;14.30;87.63
69823;SHT31;57119;52.516;13.508;2022-11-09T14:47:05;14.21;87.87
69823;SHT31;57119;52.516;13.508;2022-11-09T14:49:36;14.19;88.14
69823;SHT31;57119;52.516;13.508;2022-11-09T14:52:02;14.08;88.56
69823;SHT31;57119;52.516;13.508;2022-11-09T14:54:28;14.06;88.64
69823;SHT31;57119;52.516;13.508;2022-11-09T14:56:53;14.02;89.01
69823;SHT31;57119;52.516;13.508;2022-11-09T14:59:31;13.90;89.41
69823;SHT31;57119;52.516;13.508;2022-11-09T15:04:27;13.71;90.09
69823;SHT31;57119;52.516;13.508;2022-11-09T15:07:01;13.71;90.15
69823;SHT31;57119;52.516;13.508;2022-11-09T15:09:34;13.63;90.41
69823;SHT31;57119;52.516;13.508;2022-11-09T15:12:12;13.57;90.70
69823;SHT31;57119;52.516;13.508;2022-11-09T15:14:38;13.57;90.74
69823;SHT31;57119;52.516;13.508;2022-11-09T15:17:13;13.48;91.14
69823;SHT31;57119;52.516;13.508;2022-11-09T15:20:00;13.44;91.23
69823;SHT31;57119;52.516;13.508;2022-11-09T15:28:24;13.07;92.36
69823;SHT31;57119;52.516;13.508;2022-11-09T15:35:56;12.97;93.17
69823;SHT31;57119;52.516;13.508;2022-11-09T15:38:42;12.82;93.60
69823;SHT31;57119;52.516;13.508;2022-11-09T15:41:14;12.73;93.98
69823;SHT31;57119;52.516;13.508;2022-11-09T15:43:40;12.66;94.21
69823;SHT31;57119;52.516;13.508;2022-11-09T15:46:07;12.62;94.61
69823;SHT31;57119;52.516;13.508;2022-11-09T15:48:35;12.50;94.80
69823;SHT31;57119;52.516;13.508;2022-11-09T15:51:00;12.52;94.91
69823;SHT31;57119;52.516;13.508;2022-11-09T15:53:26;12.45;95.30
69823;SHT31;57119;52.516;13.508;2022-11-09T15:55:51;12.42;95.27
69823;SHT31;57119;52.516;13.508;2022-11-09T15:58:17;12.39;95.72
69823;SHT31;57119;52.516;13.508;2022-11-09T16:00:43;12.52;95.58
69823;SHT31;57119;52.516;13.508;2022-11-09T16:03:10;12.42;95.78
69823;SHT31;57119;52.516;13.508;2022-11-09T16:05:35;12.32;96.15
69823;SHT31;57119;52.516;13.508;2022-11-09T16:08:01;12.37;95.99
69823;SHT31;57119;52.516;13.508;2022-11-09T16:10:26;12.29;96.26
69823;SHT31;57119;52.516;13.508;2022-11-09T16:12:53;12.24;96.39
69823;SHT31;57119;52.516;13.508;2022-11-09T16:15:20;12.32;96.30
69823;SHT31;57119;52.516;13.508;2022-11-09T16:17:46;12.21;96.54
69823;SHT31;57119;52.516;13.508;2022-11-09T16:20:18;12.17;96.69
69823;SHT31;57119;52.516;13.508;2022-11-09T16:22:43;12.20;96.70
69823;SHT31;57119;52.516;13.508;2022-11-09T16:25:09;12.22;96.63
69823;SHT31;57119;52.516;13.508;2022-11-09T16:27:35;12.18;96.84
69823;SHT31;57119;52.516;13.508;2022-11-09T16:30:00;12.11;97.06
69823;SHT31;57119;52.516;13.508;2022-11-09T16:32:26;12.13;96.93
69823;SHT31;57119;52.516;13.508;2022-11-09T16:34:51;12.16;96.89
69823;SHT31;57119;52.516;13.508;2022-11-09T16:37:18;12.20;96.75
69823;SHT31;57119;52.516;13.508;2022-11-09T16:39:44;12.16;96.92
69823;SHT31;57119;52.516;13.508;2022-11-09T16:42:13;12.16;96.76
69823;SHT31;57119;52.516;13.508;2022-11-09T16:44:41;12.14;97.00
69823;SHT31;57119;52.516;13.508;2022-11-09T16:47:11;12.13;96.94
69823;SHT31;57119;52.516;13.508;2022-11-09T16:49:37;12.07;96.86
69823;SHT31;57119;52.516;13.508;2022-11-09T16:52:03;12.05;97.03
69823;SHT31;57119;52.516;13.508;2022-11-09T16:54:28;12.01;97.14
69823;SHT31;57119;52.516;13.508;2022-11-09T16:56:53;11.95;97.34
69823;SHT31;57119;52.516;13.508;2022-11-09T16:59:20;11.94;97.42
69823;SHT31;57119;52.516;13.508;2022-11-09T17:01:50;11.84;97.91
69823;SHT31;57119;52.516;13.508;2022-11-09T17:04:15;11.91;97.83
69823;SHT31;57119;52.516;13.508;2022-11-09T17:06:40;11.84;98.05
69823;SHT31;57119;52.516;13.508;2022-11-09T17:09:06;11.81;97.96
69823;SHT31;57119;52.516;13.508;2022-11-09T17:11:31;11.74;98.34
69823;SHT31;57119;52.516;13.508;2022-11-09T17:13:58;11.76;98.52
69823;SHT31;57119;52.516;13.508;2022-11-09T17:16:24;11.73;98.53
69823;SHT31;57119;52.516;13.508;2022-11-09T17:18:54;11.71;98.64
69823;SHT31;57119;52.516;13.508;2022-11-09T17:21:21;11.79;98.49
69823;SHT31;57119;52.516;13.508;2022-11-09T17:23:46;11.83;98.38